Mecca, California
Current Conditions -  °F | °C
As of 1:52 PM on Tuesday 21 Oct 2014 (Local Time) from KTRM Reporting Station
Clear Clear  
Wind Chill: 92°   Ceiling: Unl
Heat Index: 92°   Visibility: 10mi
Dew Point: 43°   Wind: 0mph
Humidity: 18%   Direction: NA
Pressure: 29.73"   Gusts: NA
Location:  33.57°N, 116.08°W
Report Text: KTRM 212052Z AUTO 00000KT 10SM CLR 33/06 A2973 RMK AO2 SLP068 T03330061 58024 TSNO
Loading
Personal Weather Stations






























Interactive Weather Map
Tropical Storm Tracking
New forecast layout! Learn more

10-Day Weather Forecast

Advertisements
Track Severe Weather on mobile